Geja C — VSQG6 — position and weather

sailwx.info

Track history (hours):
 
Tides and Currents Weather Stations Pressure Air Temp Water Temp Dewpoint Dewpoint Depression Visibility Wind Speed Wind Dir Waves Ship Positions

Geja C

Last reported at 2014-Nov-14 14:28 UTC. Time now 2014-Nov-22 01:41 UTC.
Position N 50°36' E 000°28'.

Length 142 m; draft 7.2 m.

Type: Ship (hazmat cat A). MMSI: 235006360.

Date/timePositionNaut miles runAvg speedWind from/ knotsBaromVisibWave heightAir tempDewpointWater temp
2014-Nov-14 14:28N 50°36' E 000°28'2010.6
2014-Nov-14 12:33N 50°47' E 000°55'2411.6
2014-Nov-14 10:32N 51°02' E 001°23'1111.8
2014-Nov-14 09:33N 51°10' E 001°37'1111.2
2014-Nov-14 08:33N 51°18' E 001°50'1110.6
2014-Nov-14 07:33N 51°25' E 002°03'1212.0
2014-Nov-14 06:32N 51°22' E 002°22'1111.1
2014-Nov-14 05:33N 51°23' E 002°39'1210.9
2014-Nov-14 04:27N 51°24' E 002°58'1011.0
2014-Nov-14 03:33N 51°25' E 003°14'1111.2
2014-Nov-14 02:33N 51°25' E 003°32'8 8.0
2014-Nov-14 01:33N 51°23' E 003°44'10 9.7
2014-Nov-14 00:33N 51°26' E 003°58'10 9.5
2014-Nov-13 23:33N 51°23' E 004°13'3 3.5
2014-Nov-13 22:33N 51°21' E 004°17'1 1.2
2014-Nov-13 21:33N 51°20' E 004°18'4 3.9
2014-Nov-13 20:32N 51°17' E 004°23'0 0.1
2014-Nov-13 19:32N 51°17' E 004°23'0 0.0
2014-Nov-13 18:32N 51°17' E 004°23'0 0.0
2014-Nov-13 17:32N 51°17' E 004°23'0 0.0
2014-Nov-13 16:32N 51°17' E 004°23'0 0.0
2014-Nov-13 15:29N 51°17' E 004°23'0 0.0
2014-Nov-13 14:32N 51°17' E 004°23'0 0.0
2014-Nov-13 13:32N 51°17' E 004°23'0 0.0
2014-Nov-13 12:32N 51°17' E 004°23'0 0.0
2014-Nov-13 11:29N 51°17' E 004°23'0 0.0
2014-Nov-13 10:32N 51°17' E 004°23'0 0.0
2014-Nov-13 09:32N 51°17' E 004°23'0 0.0
2014-Nov-13 08:32N 51°17' E 004°23'0 0.0
2014-Nov-13 07:32N 51°17' E 004°23'0 0.0
2014-Nov-13 06:32N 51°17' E 004°23'0 0.0
2014-Nov-13 05:32N 51°17' E 004°23'0 0.0
2014-Nov-13 04:29N 51°17' E 004°23'0 0.0
2014-Nov-13 03:32N 51°17' E 004°23'0 0.0
2014-Nov-13 02:32N 51°17' E 004°23'0 0.0
2014-Nov-13 01:32N 51°17' E 004°23'0 0.0
2014-Nov-13 00:32N 51°17' E 004°23'0 0.0
2014-Nov-12 23:32N 51°17' E 004°23'0 0.0
2014-Nov-12 22:32N 51°17' E 004°23'0 0.0
2014-Nov-12 21:29N 51°17' E 004°23'0 0.0
2014-Nov-12 20:32N 51°17' E 004°23'0 0.0
2014-Nov-12 19:32N 51°17' E 004°23'0 0.0
2014-Nov-12 18:32N 51°17' E 004°23'0 0.0
2014-Nov-12 17:32N 51°17' E 004°23'0 0.0
2014-Nov-12 16:32N 51°17' E 004°23'0 0.0
2014-Nov-12 15:29N 51°17' E 004°23'0 0.0
2014-Nov-12 14:32N 51°17' E 004°23'0 0.0
2014-Nov-12 13:32N 51°17' E 004°23'0 0.0
2014-Nov-12 12:32N 51°17' E 004°23'0 0.0
2014-Nov-12 11:32N 51°17' E 004°23'0 0.0
2014-Nov-12 10:32N 51°17' E 004°23'0 0.0
2014-Nov-12 09:32N 51°17' E 004°23'0 0.0
2014-Nov-12 08:32N 51°17' E 004°23'0 0.0
2014-Nov-12 07:32N 51°17' E 004°23'0 0.0
2014-Nov-12 06:32N 51°17' E 004°23'0 0.0
2014-Nov-12 05:32N 51°17' E 004°23'0 0.0
2014-Nov-12 04:32N 51°17' E 004°23'0 0.0
2014-Nov-12 03:32N 51°17' E 004°23'0 0.0
2014-Nov-12 02:32N 51°17' E 004°23'0 0.0
2014-Nov-12 01:32N 51°17' E 004°23'0 0.0
2014-Nov-12 00:29N 51°17' E 004°23'0 0.0
2014-Nov-11 23:32N 51°17' E 004°23'0 0.0
2014-Nov-11 22:32N 51°17' E 004°23'0 0.0
2014-Nov-11 21:32N 51°17' E 004°23'0 0.0
2014-Nov-11 20:32N 51°17' E 004°23'0 0.0
2014-Nov-11 19:32N 51°17' E 004°23'0 0.0
2014-Nov-11 18:32N 51°17' E 004°23'0 0.0
2014-Nov-11 17:32N 51°17' E 004°23'0 0.0
2014-Nov-11 16:32N 51°17' E 004°23'0 0.0
2014-Nov-11 15:32N 51°17' E 004°23'0 0.0
2014-Nov-11 14:29N 51°17' E 004°23'0 0.0
2014-Nov-11 13:32N 51°17' E 004°23'0 0.0
2014-Nov-11 12:29N 51°17' E 004°23'0 0.0
2014-Nov-11 11:32N 51°17' E 004°23'0 0.0
2014-Nov-11 10:32N 51°17' E 004°23'0 0.0
2014-Nov-11 09:32N 51°17' E 004°23'0 0.0
2014-Nov-11 08:32N 51°17' E 004°23'0 0.0
2014-Nov-11 07:32N 51°17' E 004°23'0 0.0
2014-Nov-11 06:29N 51°17' E 004°23'0 0.0
2014-Nov-11 05:32N 51°17' E 004°23'0 0.0
2014-Nov-11 04:29N 51°17' E 004°23'0 0.0
2014-Nov-11 03:32N 51°17' E 004°23'0 0.0
2014-Nov-11 02:32N 51°17' E 004°23'0 0.0
2014-Nov-11 01:32N 51°17' E 004°23'0 0.0
2014-Nov-11 00:32N 51°17' E 004°23'0 0.0
2014-Nov-10 23:32N 51°17' E 004°23'0 0.0
2014-Nov-10 22:32N 51°17' E 004°23'0 0.0
2014-Nov-10 21:29N 51°17' E 004°23'0 0.0
2014-Nov-10 20:32N 51°17' E 004°23'0 0.0
2014-Nov-10 19:32N 51°17' E 004°23'0 0.0
2014-Nov-10 18:32N 51°17' E 004°23'0 0.0
2014-Nov-10 17:32N 51°17' E 004°23'0 0.0
2014-Nov-10 16:32N 51°17' E 004°23'0 0.0
2014-Nov-10 15:32N 51°17' E 004°23'0 0.0
2014-Nov-10 14:32N 51°17' E 004°23'0 0.0
2014-Nov-10 13:32N 51°17' E 004°23'0 0.0
2014-Nov-10 12:29N 51°17' E 004°23'0 0.0
2014-Nov-10 11:32N 51°17' E 004°23'0 0.0
2014-Nov-10 10:32N 51°17' E 004°23'0 0.0
2014-Nov-10 09:32N 51°17' E 004°23'0 0.0
2014-Nov-10 08:29N 51°17' E 004°23'0 0.0
2014-Nov-10 07:32N 51°17' E 004°23'0 0.0
2014-Nov-10 06:32N 51°17' E 004°23'0 0.0
2014-Nov-10 05:32N 51°17' E 004°23'0 0.0
2014-Nov-10 04:29N 51°17' E 004°23'0 0.0
2014-Nov-10 03:32N 51°17' E 004°23'0 0.0
2014-Nov-10 02:32N 51°17' E 004°23'0 0.0
2014-Nov-10 01:32N 51°17' E 004°23'0 0.0
2014-Nov-10 00:32N 51°17' E 004°23'0 0.0
2014-Nov-09 23:32N 51°17' E 004°23'0 0.0
2014-Nov-09 22:32N 51°17' E 004°23'0 0.0
2014-Nov-09 21:32N 51°17' E 004°23'0 0.0
2014-Nov-09 20:32N 51°17' E 004°23'0 0.0
2014-Nov-09 19:32N 51°17' E 004°23'0 0.0
2014-Nov-09 18:29N 51°17' E 004°23'0 0.0
2014-Nov-09 17:29N 51°17' E 004°23'0 0.0
2014-Nov-09 16:32N 51°17' E 004°23'0 0.0
2014-Nov-09 15:32N 51°17' E 004°23'0 0.0
2014-Nov-09 14:32N 51°17' E 004°23'2 2.0
2014-Nov-09 13:34N 51°17' E 004°20'1 0.7
2014-Nov-09 12:34N 51°17' E 004°19'9 8.6
2014-Nov-09 11:34N 51°22' E 004°09'9 9.3
2014-Nov-09 10:33N 51°21' E 003°54'1111.1
2014-Nov-09 09:33N 51°26' E 003°38'10 9.9
2014-Nov-09 08:33N 51°32' E 003°25'9810.4
2014-Nov-08 23:10N 52°50' E 001°48'813.5
2014-Nov-08 22:33N 52°55' E 001°38'1414.0
2014-Nov-08 21:34N 53°07' E 001°24'6813.4
2014-Nov-08 16:31N 54°06' E 000°31'1313.5
2014-Nov-08 15:33N 54°18' E 000°22'1313.4
2014-Nov-08 14:34N 54°30' E 000°12'1313.3
2014-Nov-08 13:33N 54°42' E 000°02'1312.9
2014-Nov-08 12:34N 54°54' W 000°08'15012.4
2014-Nov-08 00:27N 57°09' W 002°02'2 1.6
2014-Nov-07 23:31N 57°09' W 002°05'0 0.0
2014-Nov-07 22:31N 57°09' W 002°05'0 0.0
2014-Nov-07 21:31N 57°09' W 002°05'0 0.0
2014-Nov-07 20:28N 57°09' W 002°05'0 0.0
2014-Nov-07 19:31N 57°09' W 002°05'0 0.0
2014-Nov-07 18:31N 57°09' W 002°05'0 0.0
2014-Nov-07 17:31N 57°09' W 002°05'0 0.0
2014-Nov-07 16:31N 57°09' W 002°05'0 0.0
2014-Nov-07 15:31N 57°09' W 002°05'0 0.0
2014-Nov-07 14:31N 57°09' W 002°05'0 0.0
2014-Nov-07 13:31N 57°09' W 002°05'0 0.0
2014-Nov-07 12:31N 57°09' W 002°05'0 0.0
2014-Nov-07 11:31N 57°09' W 002°05'0 0.0
2014-Nov-07 10:31N 57°09' W 002°05'0 0.0
2014-Nov-07 09:31N 57°09' W 002°05'0 0.0
2014-Nov-07 08:31N 57°09' W 002°05'0 0.0
2014-Nov-07 07:31N 57°09' W 002°05'0 0.0
2014-Nov-07 06:31N 57°09' W 002°05'0 0.0
2014-Nov-07 05:31N 57°09' W 002°05'0 0.0
2014-Nov-07 04:31N 57°09' W 002°05'0 0.0
2014-Nov-07 03:31N 57°09' W 002°05'0 0.0
2014-Nov-07 02:31N 57°09' W 002°05'0 0.0
2014-Nov-07 01:31N 57°09' W 002°05'0 0.0
2014-Nov-07 00:31N 57°09' W 002°05'0 0.0
2014-Nov-06 23:31N 57°09' W 002°05'0 0.0
2014-Nov-06 22:31N 57°09' W 002°05'0 0.0
2014-Nov-06 21:31N 57°09' W 002°05'0 0.0
2014-Nov-06 20:31N 57°09' W 002°05'0 0.0
2014-Nov-06 19:31N 57°09' W 002°05'0 0.0
2014-Nov-06 18:31N 57°09' W 002°05'0 0.0
2014-Nov-06 17:31N 57°09' W 002°05'0 0.0
2014-Nov-06 16:31N 57°09' W 002°05'0 0.0
2014-Nov-06 15:31N 57°09' W 002°05'0 0.0
2014-Nov-06 14:31N 57°09' W 002°05'0 0.0
2014-Nov-06 13:31N 57°09' W 002°05'0 0.0
2014-Nov-06 12:31N 57°09' W 002°05'0 0.0
2014-Nov-06 11:31N 57°09' W 002°05'0 0.0
2014-Nov-06 10:28N 57°09' W 002°05'0 0.0
2014-Nov-06 09:31N 57°09' W 002°05'0 0.0
2014-Nov-06 08:31N 57°09' W 002°05'0 0.0
2014-Nov-06 07:31N 57°09' W 002°05'0 0.0
2014-Nov-06 06:22N 57°09' W 002°05'0 0.0
2014-Nov-06 05:22N 57°09' W 002°05'0 0.0
2014-Nov-06 02:31N 57°09' W 002°05'0 0.0
2014-Nov-06 01:31N 57°09' W 002°05'0 0.0
2014-Nov-06 00:25N 57°09' W 002°05'0 0.0
2014-Nov-05 23:31N 57°09' W 002°05'0 0.0
2014-Nov-05 20:28N 57°09' W 002°05'0 0.0
2014-Nov-05 19:28N 57°09' W 002°05'0 0.0
2014-Nov-05 18:13N 57°09' W 002°05'0 0.0
2014-Nov-05 17:31N 57°09' W 002°05'0 0.0
2014-Nov-05 16:28N 57°09' W 002°05'0 0.0
2014-Nov-05 15:19N 57°09' W 002°05'0 0.0
2014-Nov-05 14:28N 57°09' W 002°05'0 0.0
2014-Nov-05 13:16N 57°09' W 002°05'0 0.0
2014-Nov-05 12:16N 57°09' W 002°05'0 0.5
2014-Nov-05 11:33N 57°08' W 002°04'  
Track history (hours):
 
Tides and Currents Weather Stations Pressure Air Temp Water Temp Dewpoint Dewpoint Depression Visibility Wind Speed Wind Dir Waves Ship Positions

Geja C

Last reported at 2014-Nov-14 14:28 UTC. Time now 2014-Nov-22 01:41 UTC.
Position N 50°36' E 000°28'.

Length 142 m; draft 7.2 m.

Type: Ship (hazmat cat A). MMSI: 235006360.

Date/timePositionNaut miles runAvg speedWind from/ knotsBaromVisibWave heightAir tempDewpointWater temp
2014-Nov-14 14:28N 50°36' E 000°28'2010.6
2014-Nov-14 12:33N 50°47' E 000°55'2411.6
2014-Nov-14 10:32N 51°02' E 001°23'1111.8
2014-Nov-14 09:33N 51°10' E 001°37'1111.2
2014-Nov-14 08:33N 51°18' E 001°50'1110.6
2014-Nov-14 07:33N 51°25' E 002°03'1212.0
2014-Nov-14 06:32N 51°22' E 002°22'1111.1
2014-Nov-14 05:33N 51°23' E 002°39'1210.9
2014-Nov-14 04:27N 51°24' E 002°58'1011.0
2014-Nov-14 03:33N 51°25' E 003°14'1111.2
2014-Nov-14 02:33N 51°25' E 003°32'8 8.0
2014-Nov-14 01:33N 51°23' E 003°44'10 9.7
2014-Nov-14 00:33N 51°26' E 003°58'10 9.5
2014-Nov-13 23:33N 51°23' E 004°13'3 3.5
2014-Nov-13 22:33N 51°21' E 004°17'1 1.2
2014-Nov-13 21:33N 51°20' E 004°18'4 3.9
2014-Nov-13 20:32N 51°17' E 004°23'0 0.1
2014-Nov-13 19:32N 51°17' E 004°23'0 0.0
2014-Nov-13 18:32N 51°17' E 004°23'0 0.0
2014-Nov-13 17:32N 51°17' E 004°23'0 0.0
2014-Nov-13 16:32N 51°17' E 004°23'0 0.0
2014-Nov-13 15:29N 51°17' E 004°23'0 0.0
2014-Nov-13 14:32N 51°17' E 004°23'0 0.0
2014-Nov-13 13:32N 51°17' E 004°23'0 0.0
2014-Nov-13 12:32N 51°17' E 004°23'0 0.0
2014-Nov-13 11:29N 51°17' E 004°23'0 0.0
2014-Nov-13 10:32N 51°17' E 004°23'0 0.0
2014-Nov-13 09:32N 51°17' E 004°23'0 0.0
2014-Nov-13 08:32N 51°17' E 004°23'0 0.0
2014-Nov-13 07:32N 51°17' E 004°23'0 0.0
2014-Nov-13 06:32N 51°17' E 004°23'0 0.0
2014-Nov-13 05:32N 51°17' E 004°23'0 0.0
2014-Nov-13 04:29N 51°17' E 004°23'0 0.0
2014-Nov-13 03:32N 51°17' E 004°23'0 0.0
2014-Nov-13 02:32N 51°17' E 004°23'0 0.0
2014-Nov-13 01:32N 51°17' E 004°23'0 0.0
2014-Nov-13 00:32N 51°17' E 004°23'0 0.0
2014-Nov-12 23:32N 51°17' E 004°23'0 0.0
2014-Nov-12 22:32N 51°17' E 004°23'0 0.0
2014-Nov-12 21:29N 51°17' E 004°23'0 0.0
2014-Nov-12 20:32N 51°17' E 004°23'0 0.0
2014-Nov-12 19:32N 51°17' E 004°23'0 0.0
2014-Nov-12 18:32N 51°17' E 004°23'0 0.0
2014-Nov-12 17:32N 51°17' E 004°23'0 0.0
2014-Nov-12 16:32N 51°17' E 004°23'0 0.0
2014-Nov-12 15:29N 51°17' E 004°23'0 0.0
2014-Nov-12 14:32N 51°17' E 004°23'0 0.0
2014-Nov-12 13:32N 51°17' E 004°23'0 0.0
2014-Nov-12 12:32N 51°17' E 004°23'0 0.0
2014-Nov-12 11:32N 51°17' E 004°23'0 0.0
2014-Nov-12 10:32N 51°17' E 004°23'0 0.0
2014-Nov-12 09:32N 51°17' E 004°23'0 0.0
2014-Nov-12 08:32N 51°17' E 004°23'0 0.0
2014-Nov-12 07:32N 51°17' E 004°23'0 0.0
2014-Nov-12 06:32N 51°17' E 004°23'0 0.0
2014-Nov-12 05:32N 51°17' E 004°23'0 0.0
2014-Nov-12 04:32N 51°17' E 004°23'0 0.0
2014-Nov-12 03:32N 51°17' E 004°23'0 0.0
2014-Nov-12 02:32N 51°17' E 004°23'0 0.0
2014-Nov-12 01:32N 51°17' E 004°23'0 0.0
2014-Nov-12 00:29N 51°17' E 004°23'0 0.0
2014-Nov-11 23:32N 51°17' E 004°23'0 0.0
2014-Nov-11 22:32N 51°17' E 004°23'0 0.0
2014-Nov-11 21:32N 51°17' E 004°23'0 0.0
2014-Nov-11 20:32N 51°17' E 004°23'0 0.0
2014-Nov-11 19:32N 51°17' E 004°23'0 0.0
2014-Nov-11 18:32N 51°17' E 004°23'0 0.0
2014-Nov-11 17:32N 51°17' E 004°23'0 0.0
2014-Nov-11 16:32N 51°17' E 004°23'0 0.0
2014-Nov-11 15:32N 51°17' E 004°23'0 0.0
2014-Nov-11 14:29N 51°17' E 004°23'0 0.0
2014-Nov-11 13:32N 51°17' E 004°23'0 0.0
2014-Nov-11 12:29N 51°17' E 004°23'0 0.0
2014-Nov-11 11:32N 51°17' E 004°23'0 0.0
2014-Nov-11 10:32N 51°17' E 004°23'0 0.0
2014-Nov-11 09:32N 51°17' E 004°23'0 0.0
2014-Nov-11 08:32N 51°17' E 004°23'0 0.0
2014-Nov-11 07:32N 51°17' E 004°23'0 0.0
2014-Nov-11 06:29N 51°17' E 004°23'0 0.0
2014-Nov-11 05:32N 51°17' E 004°23'0 0.0
2014-Nov-11 04:29N 51°17' E 004°23'0 0.0
2014-Nov-11 03:32N 51°17' E 004°23'0 0.0
2014-Nov-11 02:32N 51°17' E 004°23'0 0.0
2014-Nov-11 01:32N 51°17' E 004°23'0 0.0
2014-Nov-11 00:32N 51°17' E 004°23'0 0.0
2014-Nov-10 23:32N 51°17' E 004°23'0 0.0
2014-Nov-10 22:32N 51°17' E 004°23'0 0.0
2014-Nov-10 21:29N 51°17' E 004°23'0 0.0
2014-Nov-10 20:32N 51°17' E 004°23'0 0.0
2014-Nov-10 19:32N 51°17' E 004°23'0 0.0
2014-Nov-10 18:32N 51°17' E 004°23'0 0.0
2014-Nov-10 17:32N 51°17' E 004°23'0 0.0
2014-Nov-10 16:32N 51°17' E 004°23'0 0.0
2014-Nov-10 15:32N 51°17' E 004°23'0 0.0
2014-Nov-10 14:32N 51°17' E 004°23'0 0.0
2014-Nov-10 13:32N 51°17' E 004°23'0 0.0
2014-Nov-10 12:29N 51°17' E 004°23'0 0.0
2014-Nov-10 11:32N 51°17' E 004°23'0 0.0
2014-Nov-10 10:32N 51°17' E 004°23'0 0.0
2014-Nov-10 09:32N 51°17' E 004°23'0 0.0
2014-Nov-10 08:29N 51°17' E 004°23'0 0.0
2014-Nov-10 07:32N 51°17' E 004°23'0 0.0
2014-Nov-10 06:32N 51°17' E 004°23'0 0.0
2014-Nov-10 05:32N 51°17' E 004°23'0 0.0
2014-Nov-10 04:29N 51°17' E 004°23'0 0.0
2014-Nov-10 03:32N 51°17' E 004°23'0 0.0
2014-Nov-10 02:32N 51°17' E 004°23'0 0.0
2014-Nov-10 01:32N 51°17' E 004°23'0 0.0
2014-Nov-10 00:32N 51°17' E 004°23'0 0.0
2014-Nov-09 23:32N 51°17' E 004°23'0 0.0
2014-Nov-09 22:32N 51°17' E 004°23'0 0.0
2014-Nov-09 21:32N 51°17' E 004°23'0 0.0
2014-Nov-09 20:32N 51°17' E 004°23'0 0.0
2014-Nov-09 19:32N 51°17' E 004°23'0 0.0
2014-Nov-09 18:29N 51°17' E 004°23'0 0.0
2014-Nov-09 17:29N 51°17' E 004°23'0 0.0
2014-Nov-09 16:32N 51°17' E 004°23'0 0.0
2014-Nov-09 15:32N 51°17' E 004°23'0 0.0
2014-Nov-09 14:32N 51°17' E 004°23'2 2.0
2014-Nov-09 13:34N 51°17' E 004°20'1 0.7
2014-Nov-09 12:34N 51°17' E 004°19'9 8.6
2014-Nov-09 11:34N 51°22' E 004°09'9 9.3
2014-Nov-09 10:33N 51°21' E 003°54'1111.1
2014-Nov-09 09:33N 51°26' E 003°38'10 9.9
2014-Nov-09 08:33N 51°32' E 003°25'9810.4
2014-Nov-08 23:10N 52°50' E 001°48'813.5
2014-Nov-08 22:33N 52°55' E 001°38'1414.0
2014-Nov-08 21:34N 53°07' E 001°24'6813.4
2014-Nov-08 16:31N 54°06' E 000°31'1313.5
2014-Nov-08 15:33N 54°18' E 000°22'1313.4
2014-Nov-08 14:34N 54°30' E 000°12'1313.3
2014-Nov-08 13:33N 54°42' E 000°02'1312.9
2014-Nov-08 12:34N 54°54' W 000°08'15012.4
2014-Nov-08 00:27N 57°09' W 002°02'2 1.6
2014-Nov-07 23:31N 57°09' W 002°05'0 0.0
2014-Nov-07 22:31N 57°09' W 002°05'0 0.0
2014-Nov-07 21:31N 57°09' W 002°05'0 0.0
2014-Nov-07 20:28N 57°09' W 002°05'0 0.0
2014-Nov-07 19:31N 57°09' W 002°05'0 0.0
2014-Nov-07 18:31N 57°09' W 002°05'0 0.0
2014-Nov-07 17:31N 57°09' W 002°05'0 0.0
2014-Nov-07 16:31N 57°09' W 002°05'0 0.0
2014-Nov-07 15:31N 57°09' W 002°05'0 0.0
2014-Nov-07 14:31N 57°09' W 002°05'0 0.0
2014-Nov-07 13:31N 57°09' W 002°05'0 0.0
2014-Nov-07 12:31N 57°09' W 002°05'0 0.0
2014-Nov-07 11:31N 57°09' W 002°05'0 0.0
2014-Nov-07 10:31N 57°09' W 002°05'0 0.0
2014-Nov-07 09:31N 57°09' W 002°05'0 0.0
2014-Nov-07 08:31N 57°09' W 002°05'0 0.0
2014-Nov-07 07:31N 57°09' W 002°05'0 0.0
2014-Nov-07 06:31N 57°09' W 002°05'0 0.0
2014-Nov-07 05:31N 57°09' W 002°05'0 0.0
2014-Nov-07 04:31N 57°09' W 002°05'0 0.0
2014-Nov-07 03:31N 57°09' W 002°05'0 0.0
2014-Nov-07 02:31N 57°09' W 002°05'0 0.0
2014-Nov-07 01:31N 57°09' W 002°05'0 0.0
2014-Nov-07 00:31N 57°09' W 002°05'0 0.0
2014-Nov-06 23:31N 57°09' W 002°05'0 0.0
2014-Nov-06 22:31N 57°09' W 002°05'0 0.0
2014-Nov-06 21:31N 57°09' W 002°05'0 0.0
2014-Nov-06 20:31N 57°09' W 002°05'0 0.0
2014-Nov-06 19:31N 57°09' W 002°05'0 0.0
2014-Nov-06 18:31N 57°09' W 002°05'0 0.0
2014-Nov-06 17:31N 57°09' W 002°05'0 0.0
2014-Nov-06 16:31N 57°09' W 002°05'0 0.0
2014-Nov-06 15:31N 57°09' W 002°05'0 0.0
2014-Nov-06 14:31N 57°09' W 002°05'0 0.0
2014-Nov-06 13:31N 57°09' W 002°05'0 0.0
2014-Nov-06 12:31N 57°09' W 002°05'0 0.0
2014-Nov-06 11:31N 57°09' W 002°05'0 0.0
2014-Nov-06 10:28N 57°09' W 002°05'0 0.0
2014-Nov-06 09:31N 57°09' W 002°05'0 0.0
2014-Nov-06 08:31N 57°09' W 002°05'0 0.0
2014-Nov-06 07:31N 57°09' W 002°05'0 0.0
2014-Nov-06 06:22N 57°09' W 002°05'0 0.0
2014-Nov-06 05:22N 57°09' W 002°05'0 0.0
2014-Nov-06 02:31N 57°09' W 002°05'0 0.0
2014-Nov-06 01:31N 57°09' W 002°05'0 0.0
2014-Nov-06 00:25N 57°09' W 002°05'0 0.0
2014-Nov-05 23:31N 57°09' W 002°05'0 0.0
2014-Nov-05 20:28N 57°09' W 002°05'0 0.0
2014-Nov-05 19:28N 57°09' W 002°05'0 0.0
2014-Nov-05 18:13N 57°09' W 002°05'0 0.0
2014-Nov-05 17:31N 57°09' W 002°05'0 0.0
2014-Nov-05 16:28N 57°09' W 002°05'0 0.0
2014-Nov-05 15:19N 57°09' W 002°05'0 0.0
2014-Nov-05 14:28N 57°09' W 002°05'0 0.0
2014-Nov-05 13:16N 57°09' W 002°05'0 0.0
2014-Nov-05 12:16N 57°09' W 002°05'0 0.5
2014-Nov-05 11:33N 57°08' W 002°04'  

Dump ship's entire track history